Stardust — WDG8792 — position and weather

sailwx.info

Track history (hours):
 
Tides and Currents Weather Stations Pressure Air Temp Water Temp Dewpoint Dewpoint Depression Visibility Wind Speed Wind Dir Waves Ship Positions

Stardust

Owner: Harley Marine Services, Inc, Seattle, WA. More information available from US FCC via Universal Licensing System and Coast Guard Vessel Documentation Center.

Last reported at 2017-Oct-18 21:10 UTC. Time now 2017-Oct-20 12:44 UTC.
Position N 29°33' W 094°54'.

Length 23 m; draft 2 m.

Type: Towing. MMSI: 367581120.

Date/timePositionNaut miles runAvg speedWind from/ knotsBaromVisibWave heightAir tempDewpointWater temp
2017-Oct-18 21:10N 29°33' W 094°54'1 5.9
2017-Oct-18 21:01N 29°33' W 094°55'3 6.0
2017-Oct-18 20:30N 29°36' W 094°57'3 6.1
2017-Oct-18 20:00N 29°39' W 094°58'3 6.4
2017-Oct-18 19:30N 29°42' W 094°60'3 6.0
2017-Oct-18 18:58N 29°44' W 095°02'3 0.5
2017-Oct-18 11:47N 29°45' W 095°06'0 0.0
2017-Oct-18 05:41N 29°45' W 095°06'0 0.0
2017-Oct-18 05:30N 29°45' W 095°06'1 1.0
2017-Oct-18 04:59N 29°44' W 095°07'3 6.2
2017-Oct-18 04:29N 29°45' W 095°10'0 0.1
2017-Oct-18 03:00N 29°45' W 095°10'0 0.0
2017-Oct-18 01:29N 29°45' W 095°10'0 0.0
2017-Oct-18 00:30N 29°45' W 095°10'0 0.0
2017-Oct-18 00:01N 29°45' W 095°10'0 0.0
2017-Oct-17 23:30N 29°45' W 095°10'0 0.0
2017-Oct-17 23:00N 29°45' W 095°10'0 0.0
2017-Oct-17 22:30N 29°45' W 095°10'0 0.0
2017-Oct-17 21:59N 29°45' W 095°10'0 0.0
2017-Oct-17 21:26N 29°45' W 095°10'0 0.0
2017-Oct-17 20:58N 29°45' W 095°10'0 0.0
2017-Oct-17 20:30N 29°45' W 095°10'3 2.4
2017-Oct-17 19:04N 29°45' W 095°06'2 4.1
2017-Oct-17 18:36N 29°45' W 095°04'1 5.1
2017-Oct-17 18:28N 29°45' W 095°04'1 0.1
2017-Oct-17 07:15N 29°44' W 095°03'0 0.3
2017-Oct-17 07:01N 29°44' W 095°03'0 0.0
2017-Oct-17 06:05N 29°44' W 095°03'0 0.0
2017-Oct-17 05:46N 29°44' W 095°03'0 0.0
2017-Oct-17 05:17N 29°44' W 095°03'0 0.0
2017-Oct-17 04:57N 29°44' W 095°03'0 0.0
2017-Oct-17 04:30N 29°44' W 095°03'0 0.0
2017-Oct-17 04:00N 29°44' W 095°03'0 0.0
2017-Oct-17 03:30N 29°44' W 095°03'0 0.0
2017-Oct-17 03:00N 29°44' W 095°03'0 0.0
2017-Oct-17 02:30N 29°44' W 095°03'0 0.0
2017-Oct-17 01:58N 29°44' W 095°03'2 3.0
2017-Oct-17 01:23N 29°43' W 095°01'2 5.6
2017-Oct-17 01:00N 29°42' W 094°59'1 1.5
2017-Oct-17 00:31N 29°41' W 094°60'0 0.0
2017-Oct-17 00:00N 29°41' W 094°60'0 0.0
2017-Oct-16 23:30N 29°41' W 094°60'0 0.0
2017-Oct-16 22:59N 29°41' W 094°60'0 0.0
2017-Oct-16 22:31N 29°41' W 094°60'0 0.0
2017-Oct-16 18:34N 29°41' W 094°60'0 0.0
2017-Oct-16 18:17N 29°41' W 094°60'0 0.0
2017-Oct-16 17:40N 29°41' W 094°60'0 1.1
2017-Oct-16 17:29N 29°41' W 094°60'1 1.1
2017-Oct-16 16:59N 29°41' W 095°01'0 0.0
2017-Oct-16 16:28N 29°41' W 095°01'0 0.0
2017-Oct-16 15:59N 29°41' W 095°01'0 0.0
2017-Oct-16 15:27N 29°41' W 095°01'0 0.1
2017-Oct-16 15:00N 29°41' W 095°01'0 0.1
2017-Oct-16 13:56N 29°41' W 095°01'0 0.0
2017-Oct-16 13:30N 29°41' W 095°01'0 0.0
2017-Oct-16 11:45N 29°41' W 095°01'0 0.0
2017-Oct-16 11:13N 29°41' W 095°01'0 0.0
2017-Oct-16 11:00N 29°41' W 095°01'0 0.0
2017-Oct-16 10:22N 29°41' W 095°01'0 0.0
2017-Oct-16 10:00N 29°41' W 095°01'0 0.0
2017-Oct-16 09:31N 29°41' W 095°01'0 0.0
2017-Oct-16 08:59N 29°41' W 095°01'0 0.0
2017-Oct-16 08:31N 29°41' W 095°01'0 0.0
2017-Oct-16 07:58N 29°41' W 095°01'0 0.0
2017-Oct-16 07:31N 29°41' W 095°01'0 0.0
2017-Oct-16 06:59N 29°41' W 095°01'0 0.0
2017-Oct-16 06:30N 29°41' W 095°01'0 0.0
2017-Oct-16 06:00N 29°41' W 095°01'0 0.0
2017-Oct-16 05:31N 29°41' W 095°01'0 0.0
2017-Oct-16 04:59N 29°41' W 095°01'0 0.0
2017-Oct-16 04:30N 29°41' W 095°01'0 0.0
2017-Oct-16 04:00N 29°41' W 095°01'0 0.0
2017-Oct-16 03:25N 29°41' W 095°01'0 0.0
2017-Oct-16 02:55N 29°41' W 095°01'0 0.0
2017-Oct-16 02:29N 29°41' W 095°01'0 0.0
2017-Oct-16 01:59N 29°41' W 095°01'0 0.0
2017-Oct-16 01:31N 29°41' W 095°01'0 0.0
2017-Oct-16 01:00N 29°41' W 095°01'0 0.0
2017-Oct-16 00:30N 29°41' W 095°01'0 0.0
2017-Oct-16 00:00N 29°41' W 095°01'0 0.0
2017-Oct-15 23:30N 29°41' W 095°01'0 0.0
2017-Oct-15 23:00N 29°41' W 095°01'0 0.0
2017-Oct-15 22:29N 29°41' W 095°01'0 0.0
2017-Oct-15 21:52N 29°41' W 095°01'0 0.0
2017-Oct-15 21:30N 29°41' W 095°01'0 0.0
2017-Oct-15 21:00N 29°41' W 095°01'0 0.1
2017-Oct-15 20:30N 29°41' W 095°01'1 2.1
2017-Oct-15 20:00N 29°42' W 094°59'3 5.8
2017-Oct-15 19:27N 29°44' W 095°02'1 0.1
2017-Oct-15 07:47N 29°44' W 095°03'0 0.3
2017-Oct-15 07:31N 29°44' W 095°03'0 0.0
2017-Oct-15 07:01N 29°44' W 095°03'0 0.0
2017-Oct-15 06:31N 29°44' W 095°03'0 0.0
2017-Oct-15 06:00N 29°44' W 095°03'0 0.0
2017-Oct-15 05:31N 29°44' W 095°03'0 0.0
2017-Oct-15 05:01N 29°44' W 095°03'0 0.0
2017-Oct-15 04:30N 29°44' W 095°03'0 0.0
2017-Oct-15 04:00N 29°44' W 095°03'0 0.0
2017-Oct-15 03:31N 29°44' W 095°03'0 0.0
2017-Oct-15 03:00N 29°44' W 095°03'0 0.0
2017-Oct-15 02:30N 29°44' W 095°03'0 0.0
2017-Oct-15 02:01N 29°44' W 095°03'0 0.0
2017-Oct-15 01:31N 29°44' W 095°03'0 0.0
2017-Oct-15 01:00N 29°44' W 095°03'0 0.0
2017-Oct-15 00:30N 29°44' W 095°03'0 0.0
2017-Oct-15 00:01N 29°44' W 095°03'0 0.1
2017-Oct-14 23:30N 29°44' W 095°03'3 0.1
2017-Oct-13 23:32N 29°42' W 095°00'1 6.0
2017-Oct-13 23:20N 29°41' W 094°59'2 6.1
2017-Oct-13 23:00N 29°39' W 094°58'3 6.8
2017-Oct-13 22:30N 29°36' W 094°57'3 6.8
2017-Oct-13 22:01N 29°33' W 094°55'0 0.0
2017-Oct-12 08:25N 29°33' W 094°55'3 6.6
2017-Oct-12 08:00N 29°35' W 094°56'3 6.8
2017-Oct-12 07:30N 29°38' W 094°58'3 6.8
2017-Oct-12 07:00N 29°42' W 094°59'3 5.7
2017-Oct-12 06:29N 29°44' W 095°02'3 5.8
2017-Oct-12 05:54N 29°46' W 095°05'3 6.2
2017-Oct-12 05:27N 29°44' W 095°08'2 3.8
2017-Oct-12 05:00N 29°44' W 095°09'3 6.0
2017-Oct-12 04:27N 29°43' W 095°13'3 6.0
2017-Oct-12 04:00N 29°44' W 095°16'0 0.1
2017-Oct-11 20:50N 29°44' W 095°17'1 3.0
2017-Oct-11 20:23N 29°43' W 095°15'1 1.5
2017-Oct-11 19:59N 29°43' W 095°15'0 0.0
2017-Oct-11 19:24N 29°43' W 095°15'0 0.0
2017-Oct-11 18:47N 29°43' W 095°15'0 0.0
2017-Oct-11 16:57N 29°43' W 095°15'10 0.3
2017-Oct-10 07:42N 29°44' W 095°03'2 5.9
2017-Oct-10 07:22N 29°43' W 095°01'2 5.2
2017-Oct-10 07:00N 29°42' W 095°00'3 5.6
2017-Oct-10 06:30N 29°40' W 094°58'3 6.3
2017-Oct-10 06:00N 29°37' W 094°57'3 6.3
2017-Oct-10 05:30N 29°34' W 094°55'  
Track history (hours):
 
Tides and Currents Weather Stations Pressure Air Temp Water Temp Dewpoint Dewpoint Depression Visibility Wind Speed Wind Dir Waves Ship Positions

Stardust

Owner: Harley Marine Services, Inc, Seattle, WA. More information available from US FCC via Universal Licensing System and Coast Guard Vessel Documentation Center.

Last reported at 2017-Oct-18 21:10 UTC. Time now 2017-Oct-20 12:44 UTC.
Position N 29°33' W 094°54'.

Length 23 m; draft 2 m.

Type: Towing. MMSI: 367581120.

Date/timePositionNaut miles runAvg speedWind from/ knotsBaromVisibWave heightAir tempDewpointWater temp
2017-Oct-18 21:10N 29°33' W 094°54'1 5.9
2017-Oct-18 21:01N 29°33' W 094°55'3 6.0
2017-Oct-18 20:30N 29°36' W 094°57'3 6.1
2017-Oct-18 20:00N 29°39' W 094°58'3 6.4
2017-Oct-18 19:30N 29°42' W 094°60'3 6.0
2017-Oct-18 18:58N 29°44' W 095°02'3 0.5
2017-Oct-18 11:47N 29°45' W 095°06'0 0.0
2017-Oct-18 05:41N 29°45' W 095°06'0 0.0
2017-Oct-18 05:30N 29°45' W 095°06'1 1.0
2017-Oct-18 04:59N 29°44' W 095°07'3 6.2
2017-Oct-18 04:29N 29°45' W 095°10'0 0.1
2017-Oct-18 03:00N 29°45' W 095°10'0 0.0
2017-Oct-18 01:29N 29°45' W 095°10'0 0.0
2017-Oct-18 00:30N 29°45' W 095°10'0 0.0
2017-Oct-18 00:01N 29°45' W 095°10'0 0.0
2017-Oct-17 23:30N 29°45' W 095°10'0 0.0
2017-Oct-17 23:00N 29°45' W 095°10'0 0.0
2017-Oct-17 22:30N 29°45' W 095°10'0 0.0
2017-Oct-17 21:59N 29°45' W 095°10'0 0.0
2017-Oct-17 21:26N 29°45' W 095°10'0 0.0
2017-Oct-17 20:58N 29°45' W 095°10'0 0.0
2017-Oct-17 20:30N 29°45' W 095°10'3 2.4
2017-Oct-17 19:04N 29°45' W 095°06'2 4.1
2017-Oct-17 18:36N 29°45' W 095°04'1 5.1
2017-Oct-17 18:28N 29°45' W 095°04'1 0.1
2017-Oct-17 07:15N 29°44' W 095°03'0 0.3
2017-Oct-17 07:01N 29°44' W 095°03'0 0.0
2017-Oct-17 06:05N 29°44' W 095°03'0 0.0
2017-Oct-17 05:46N 29°44' W 095°03'0 0.0
2017-Oct-17 05:17N 29°44' W 095°03'0 0.0
2017-Oct-17 04:57N 29°44' W 095°03'0 0.0
2017-Oct-17 04:30N 29°44' W 095°03'0 0.0
2017-Oct-17 04:00N 29°44' W 095°03'0 0.0
2017-Oct-17 03:30N 29°44' W 095°03'0 0.0
2017-Oct-17 03:00N 29°44' W 095°03'0 0.0
2017-Oct-17 02:30N 29°44' W 095°03'0 0.0
2017-Oct-17 01:58N 29°44' W 095°03'2 3.0
2017-Oct-17 01:23N 29°43' W 095°01'2 5.6
2017-Oct-17 01:00N 29°42' W 094°59'1 1.5
2017-Oct-17 00:31N 29°41' W 094°60'0 0.0
2017-Oct-17 00:00N 29°41' W 094°60'0 0.0
2017-Oct-16 23:30N 29°41' W 094°60'0 0.0
2017-Oct-16 22:59N 29°41' W 094°60'0 0.0
2017-Oct-16 22:31N 29°41' W 094°60'0 0.0
2017-Oct-16 18:34N 29°41' W 094°60'0 0.0
2017-Oct-16 18:17N 29°41' W 094°60'0 0.0
2017-Oct-16 17:40N 29°41' W 094°60'0 1.1
2017-Oct-16 17:29N 29°41' W 094°60'1 1.1
2017-Oct-16 16:59N 29°41' W 095°01'0 0.0
2017-Oct-16 16:28N 29°41' W 095°01'0 0.0
2017-Oct-16 15:59N 29°41' W 095°01'0 0.0
2017-Oct-16 15:27N 29°41' W 095°01'0 0.1
2017-Oct-16 15:00N 29°41' W 095°01'0 0.1
2017-Oct-16 13:56N 29°41' W 095°01'0 0.0
2017-Oct-16 13:30N 29°41' W 095°01'0 0.0
2017-Oct-16 11:45N 29°41' W 095°01'0 0.0
2017-Oct-16 11:13N 29°41' W 095°01'0 0.0
2017-Oct-16 11:00N 29°41' W 095°01'0 0.0
2017-Oct-16 10:22N 29°41' W 095°01'0 0.0
2017-Oct-16 10:00N 29°41' W 095°01'0 0.0
2017-Oct-16 09:31N 29°41' W 095°01'0 0.0
2017-Oct-16 08:59N 29°41' W 095°01'0 0.0
2017-Oct-16 08:31N 29°41' W 095°01'0 0.0
2017-Oct-16 07:58N 29°41' W 095°01'0 0.0
2017-Oct-16 07:31N 29°41' W 095°01'0 0.0
2017-Oct-16 06:59N 29°41' W 095°01'0 0.0
2017-Oct-16 06:30N 29°41' W 095°01'0 0.0
2017-Oct-16 06:00N 29°41' W 095°01'0 0.0
2017-Oct-16 05:31N 29°41' W 095°01'0 0.0
2017-Oct-16 04:59N 29°41' W 095°01'0 0.0
2017-Oct-16 04:30N 29°41' W 095°01'0 0.0
2017-Oct-16 04:00N 29°41' W 095°01'0 0.0
2017-Oct-16 03:25N 29°41' W 095°01'0 0.0
2017-Oct-16 02:55N 29°41' W 095°01'0 0.0
2017-Oct-16 02:29N 29°41' W 095°01'0 0.0
2017-Oct-16 01:59N 29°41' W 095°01'0 0.0
2017-Oct-16 01:31N 29°41' W 095°01'0 0.0
2017-Oct-16 01:00N 29°41' W 095°01'0 0.0
2017-Oct-16 00:30N 29°41' W 095°01'0 0.0
2017-Oct-16 00:00N 29°41' W 095°01'0 0.0
2017-Oct-15 23:30N 29°41' W 095°01'0 0.0
2017-Oct-15 23:00N 29°41' W 095°01'0 0.0
2017-Oct-15 22:29N 29°41' W 095°01'0 0.0
2017-Oct-15 21:52N 29°41' W 095°01'0 0.0
2017-Oct-15 21:30N 29°41' W 095°01'0 0.0
2017-Oct-15 21:00N 29°41' W 095°01'0 0.1
2017-Oct-15 20:30N 29°41' W 095°01'1 2.1
2017-Oct-15 20:00N 29°42' W 094°59'3 5.8
2017-Oct-15 19:27N 29°44' W 095°02'1 0.1
2017-Oct-15 07:47N 29°44' W 095°03'0 0.3
2017-Oct-15 07:31N 29°44' W 095°03'0 0.0
2017-Oct-15 07:01N 29°44' W 095°03'0 0.0
2017-Oct-15 06:31N 29°44' W 095°03'0 0.0
2017-Oct-15 06:00N 29°44' W 095°03'0 0.0
2017-Oct-15 05:31N 29°44' W 095°03'0 0.0
2017-Oct-15 05:01N 29°44' W 095°03'0 0.0
2017-Oct-15 04:30N 29°44' W 095°03'0 0.0
2017-Oct-15 04:00N 29°44' W 095°03'0 0.0
2017-Oct-15 03:31N 29°44' W 095°03'0 0.0
2017-Oct-15 03:00N 29°44' W 095°03'0 0.0
2017-Oct-15 02:30N 29°44' W 095°03'0 0.0
2017-Oct-15 02:01N 29°44' W 095°03'0 0.0
2017-Oct-15 01:31N 29°44' W 095°03'0 0.0
2017-Oct-15 01:00N 29°44' W 095°03'0 0.0
2017-Oct-15 00:30N 29°44' W 095°03'0 0.0
2017-Oct-15 00:01N 29°44' W 095°03'0 0.1
2017-Oct-14 23:30N 29°44' W 095°03'3 0.1
2017-Oct-13 23:32N 29°42' W 095°00'1 6.0
2017-Oct-13 23:20N 29°41' W 094°59'2 6.1
2017-Oct-13 23:00N 29°39' W 094°58'3 6.8
2017-Oct-13 22:30N 29°36' W 094°57'3 6.8
2017-Oct-13 22:01N 29°33' W 094°55'0 0.0
2017-Oct-12 08:25N 29°33' W 094°55'3 6.6
2017-Oct-12 08:00N 29°35' W 094°56'3 6.8
2017-Oct-12 07:30N 29°38' W 094°58'3 6.8
2017-Oct-12 07:00N 29°42' W 094°59'3 5.7
2017-Oct-12 06:29N 29°44' W 095°02'3 5.8
2017-Oct-12 05:54N 29°46' W 095°05'3 6.2
2017-Oct-12 05:27N 29°44' W 095°08'2 3.8
2017-Oct-12 05:00N 29°44' W 095°09'3 6.0
2017-Oct-12 04:27N 29°43' W 095°13'3 6.0
2017-Oct-12 04:00N 29°44' W 095°16'0 0.1
2017-Oct-11 20:50N 29°44' W 095°17'1 3.0
2017-Oct-11 20:23N 29°43' W 095°15'1 1.5
2017-Oct-11 19:59N 29°43' W 095°15'0 0.0
2017-Oct-11 19:24N 29°43' W 095°15'0 0.0
2017-Oct-11 18:47N 29°43' W 095°15'0 0.0
2017-Oct-11 16:57N 29°43' W 095°15'10 0.3
2017-Oct-10 07:42N 29°44' W 095°03'2 5.9
2017-Oct-10 07:22N 29°43' W 095°01'2 5.2
2017-Oct-10 07:00N 29°42' W 095°00'3 5.6
2017-Oct-10 06:30N 29°40' W 094°58'3 6.3
2017-Oct-10 06:00N 29°37' W 094°57'3 6.3
2017-Oct-10 05:30N 29°34' W 094°55'  

Dump ship's entire track history